Farmville, Virginia
Current Conditions -  °F | °C
As of 4:15 AM on Monday 20 Oct 2014 (Local Time) from KFVX Reporting Station
Haze Haze  
Wind Chill: 37°   Ceiling: Unl
Heat Index: 37°   Visibility: 4mi
Dew Point: 36°   Wind: 0mph
Humidity: 93%   Direction: NA
Pressure: 30.09"   Gusts: NA
Location:  37.3°N, 78.39°W
Report Text: KFVX 200815Z AUTO 00000KT 4SM BR CLR 03/02 A3009 RMK AO2
Loading
Personal Weather Stations






























Interactive Weather Map
Tropical Storm Tracking
New forecast layout! Learn more

10-Day Weather Forecast

Advertisements
Track Severe Weather on mobile